FHA12E LTBJ-LTFJ
Flight info
| Callsign | FHA12E |
|---|---|
| Flight time | 0h 52m |
| Altitude | 36000 |
| Route | BERGO1T BERGO UG80 DUGLA UY371 VUTZO VUTZO1H |
| Aircraft | A321/M-SDE3FGHIRWY/LB1 |
Departure
| Time | 2026-05-05 09:20 |
|---|---|
| Airport | Adnan Menderes International Airport (LTBJ) |
Arrival
| Time | 2026-05-05 10:13 |
|---|---|
| Airport | Istanbul Sabiha Gökçen International Airport (LTFJ) |
| Time | Latitude | Longitude | Altitude | Speed | Heading |
|---|---|---|---|---|---|
| 2026-05-05 08:56 | 38.29297 | 27.15074 | 409 ft | 0 kts | 256° |
| 2026-05-05 09:11 | 38.29301 | 27.15096 | 408 ft | 3 kts | 256° |
| 2026-05-05 09:11 | 38.29311 | 27.15125 | 410 ft | 4 kts | 216° |
| 2026-05-05 09:11 | 38.29334 | 27.15133 | 405 ft | 4 kts | 169° |
| 2026-05-05 09:11 | 38.29332 | 27.15134 | 405 ft | 4 kts | 166° |
| 2026-05-05 09:12 | 38.29306 | 27.15142 | 408 ft | 4 kts | 166° |
| 2026-05-05 09:12 | 38.29290 | 27.15147 | 411 ft | 0 kts | 166° |
| 2026-05-05 09:14 | 38.29285 | 27.15148 | 411 ft | 2 kts | 166° |
| 2026-05-05 09:14 | 38.29252 | 27.15158 | 410 ft | 7 kts | 166° |
| 2026-05-05 09:15 | 38.29198 | 27.15174 | 411 ft | 9 kts | 166° |
| 2026-05-05 09:15 | 38.29133 | 27.15194 | 411 ft | 10 kts | 166° |
| 2026-05-05 09:15 | 38.29056 | 27.15218 | 411 ft | 12 kts | 166° |
| 2026-05-05 09:15 | 38.29001 | 27.15289 | 411 ft | 12 kts | 134° |
| 2026-05-05 09:16 | 38.28920 | 27.15324 | 411 ft | 12 kts | 166° |
| 2026-05-05 09:16 | 38.28840 | 27.15348 | 415 ft | 12 kts | 167° |
| 2026-05-05 09:16 | 38.28764 | 27.15371 | 413 ft | 11 kts | 167° |
| 2026-05-05 09:16 | 38.28693 | 27.15392 | 418 ft | 10 kts | 166° |
| 2026-05-05 09:17 | 38.28611 | 27.15417 | 417 ft | 14 kts | 166° |
| 2026-05-05 09:17 | 38.28512 | 27.15448 | 417 ft | 15 kts | 166° |
| 2026-05-05 09:17 | 38.28403 | 27.15482 | 418 ft | 17 kts | 167° |
| 2026-05-05 09:17 | 38.28285 | 27.15516 | 417 ft | 18 kts | 167° |
| 2026-05-05 09:18 | 38.28196 | 27.15543 | 411 ft | 13 kts | 166° |
| 2026-05-05 09:18 | 38.28112 | 27.15571 | 418 ft | 11 kts | 154° |
| 2026-05-05 09:18 | 38.28106 | 27.15656 | 417 ft | 11 kts | 77° |
| 2026-05-05 09:18 | 38.28125 | 27.15754 | 410 ft | 12 kts | 77° |
| 2026-05-05 09:19 | 38.28145 | 27.15863 | 415 ft | 12 kts | 76° |
| 2026-05-05 09:19 | 38.28164 | 27.15966 | 420 ft | 10 kts | 76° |
| 2026-05-05 09:19 | 38.28207 | 27.16007 | 417 ft | 9 kts | 350° |
| 2026-05-05 09:19 | 38.28267 | 27.15990 | 420 ft | 10 kts | 347° |
| 2026-05-05 09:20 | 38.28527 | 27.15913 | 413 ft | 76 kts | 347° |
| 2026-05-05 09:20 | 38.29257 | 27.15690 | 416 ft | 140 kts | 346° |
| 2026-05-05 09:20 | 38.30268 | 27.15363 | 845 ft | 155 kts | 346° |
| 2026-05-05 09:20 | 38.31327 | 27.15008 | 1481 ft | 157 kts | 348° |
| 2026-05-05 09:21 | 38.32386 | 27.14693 | 2220 ft | 156 kts | 348° |
| 2026-05-05 09:21 | 38.33483 | 27.14374 | 2591 ft | 171 kts | 349° |
| 2026-05-05 09:21 | 38.34716 | 27.14017 | 2797 ft | 192 kts | 348° |
| 2026-05-05 09:21 | 38.36091 | 27.13615 | 2946 ft | 215 kts | 348° |
| 2026-05-05 09:22 | 38.37634 | 27.13160 | 3146 ft | 241 kts | 347° |
| 2026-05-05 09:22 | 38.39312 | 27.12661 | 3803 ft | 251 kts | 348° |
| 2026-05-05 09:22 | 38.40995 | 27.12157 | 4724 ft | 252 kts | 348° |
| 2026-05-05 09:22 | 38.42699 | 27.11644 | 5717 ft | 250 kts | 349° |
| 2026-05-05 09:23 | 38.44383 | 27.11135 | 6714 ft | 248 kts | 349° |
| 2026-05-05 09:23 | 38.46059 | 27.10629 | 7601 ft | 248 kts | 349° |
| 2026-05-05 09:23 | 38.47747 | 27.10120 | 8427 ft | 251 kts | 349° |
| 2026-05-05 09:23 | 38.49457 | 27.09604 | 9199 ft | 255 kts | 349° |
| 2026-05-05 09:24 | 38.51196 | 27.09079 | 9965 ft | 258 kts | 349° |
| 2026-05-05 09:24 | 38.52984 | 27.08539 | 10387 ft | 274 kts | 348° |
| 2026-05-05 09:24 | 38.54916 | 27.07954 | 10579 ft | 297 kts | 348° |
| 2026-05-05 09:24 | 38.57008 | 27.07320 | 10739 ft | 321 kts | 348° |
| 2026-05-05 09:25 | 38.59223 | 27.06664 | 10950 ft | 339 kts | 350° |
| 2026-05-05 09:25 | 38.61592 | 27.06370 | 11509 ft | 346 kts | 0° |
| 2026-05-05 09:25 | 38.64005 | 27.06640 | 12159 ft | 351 kts | 7° |
| 2026-05-05 09:25 | 38.66440 | 27.07083 | 12832 ft | 356 kts | 7° |
| 2026-05-05 09:26 | 38.68904 | 27.07534 | 13478 ft | 360 kts | 7° |
| 2026-05-05 09:26 | 38.71403 | 27.07994 | 14098 ft | 365 kts | 7° |
| 2026-05-05 09:26 | 38.73936 | 27.08464 | 14640 ft | 371 kts | 7° |
| 2026-05-05 09:26 | 38.76505 | 27.08941 | 15273 ft | 374 kts | 7° |
| 2026-05-05 09:27 | 38.79059 | 27.09416 | 15903 ft | 378 kts | 7° |
| 2026-05-05 09:27 | 38.81673 | 27.09901 | 16534 ft | 382 kts | 6° |
| 2026-05-05 09:27 | 38.84315 | 27.10388 | 17161 ft | 386 kts | 6° |
| 2026-05-05 09:27 | 38.86984 | 27.10881 | 17778 ft | 389 kts | 6° |
| 2026-05-05 09:28 | 38.89680 | 27.11378 | 18371 ft | 393 kts | 6° |
| 2026-05-05 09:28 | 38.92395 | 27.11878 | 18882 ft | 396 kts | 6° |
| 2026-05-05 09:28 | 38.95134 | 27.12385 | 19382 ft | 399 kts | 6° |
| 2026-05-05 09:28 | 38.97895 | 27.12901 | 19850 ft | 403 kts | 6° |
| 2026-05-05 09:29 | 39.00681 | 27.13422 | 20322 ft | 407 kts | 6° |
| 2026-05-05 09:29 | 39.03459 | 27.13935 | 20785 ft | 411 kts | 6° |
| 2026-05-05 09:29 | 39.06302 | 27.14453 | 21234 ft | 414 kts | 6° |
| 2026-05-05 09:29 | 39.09171 | 27.14972 | 21674 ft | 418 kts | 5° |
| 2026-05-05 09:30 | 39.12066 | 27.15496 | 22116 ft | 422 kts | 5° |
| 2026-05-05 09:30 | 39.14990 | 27.16026 | 22540 ft | 426 kts | 5° |
| 2026-05-05 09:30 | 39.17934 | 27.16561 | 22972 ft | 429 kts | 5° |
| 2026-05-05 09:30 | 39.20900 | 27.17105 | 23402 ft | 433 kts | 5° |
| 2026-05-05 09:31 | 39.23896 | 27.17658 | 23807 ft | 436 kts | 5° |
| 2026-05-05 09:31 | 39.26869 | 27.18207 | 24181 ft | 439 kts | 5° |
| 2026-05-05 09:31 | 39.29903 | 27.18765 | 24561 ft | 442 kts | 5° |
| 2026-05-05 09:31 | 39.32955 | 27.19325 | 24936 ft | 444 kts | 5° |
| 2026-05-05 09:32 | 39.36023 | 27.19887 | 25299 ft | 447 kts | 5° |
| 2026-05-05 09:32 | 39.39110 | 27.20452 | 25662 ft | 449 kts | 5° |
| 2026-05-05 09:32 | 39.42208 | 27.21019 | 26029 ft | 451 kts | 5° |
| 2026-05-05 09:32 | 39.45329 | 27.21593 | 26392 ft | 454 kts | 5° |
| 2026-05-05 09:33 | 39.48464 | 27.22176 | 26758 ft | 457 kts | 6° |
| 2026-05-05 09:33 | 39.51575 | 27.23109 | 27126 ft | 462 kts | 14° |
| 2026-05-05 09:33 | 39.54595 | 27.24344 | 27635 ft | 461 kts | 14° |
| 2026-05-05 09:33 | 39.57651 | 27.25594 | 28161 ft | 460 kts | 14° |
| 2026-05-05 09:34 | 39.60694 | 27.26840 | 28676 ft | 458 kts | 14° |
| 2026-05-05 09:34 | 39.63733 | 27.28082 | 29171 ft | 458 kts | 14° |
| 2026-05-05 09:34 | 39.66771 | 27.29318 | 29677 ft | 457 kts | 14° |
| 2026-05-05 09:34 | 39.69801 | 27.30552 | 30208 ft | 456 kts | 14° |
| 2026-05-05 09:35 | 39.72819 | 27.31785 | 30672 ft | 454 kts | 14° |
| 2026-05-05 09:35 | 39.78773 | 27.34227 | 31614 ft | 450 kts | 14° |
| 2026-05-05 09:35 | 39.81751 | 27.35453 | 31989 ft | 449 kts | 14° |
| 2026-05-05 09:36 | 39.87681 | 27.37889 | 32097 ft | 446 kts | 14° |
| 2026-05-05 09:36 | 39.93596 | 27.40326 | 32096 ft | 446 kts | 14° |
| 2026-05-05 09:37 | 39.99507 | 27.42763 | 32095 ft | 446 kts | 14° |
| 2026-05-05 09:37 | 40.05427 | 27.45187 | 32098 ft | 445 kts | 14° |
| 2026-05-05 09:38 | 40.11293 | 27.47598 | 32099 ft | 445 kts | 14° |
| 2026-05-05 09:38 | 40.17207 | 27.50056 | 32095 ft | 446 kts | 14° |
| 2026-05-05 09:39 | 40.23124 | 27.52528 | 32109 ft | 447 kts | 14° |
| 2026-05-05 09:39 | 40.28867 | 27.55706 | 31751 ft | 456 kts | 33° |
| 2026-05-05 09:40 | 40.31152 | 27.58603 | 31421 ft | 464 kts | 50° |
| 2026-05-05 09:40 | 40.32754 | 27.62304 | 31051 ft | 472 kts | 67° |
| 2026-05-05 09:40 | 40.33759 | 27.66423 | 30687 ft | 477 kts | 71° |
| 2026-05-05 09:40 | 40.34718 | 27.70587 | 30318 ft | 479 kts | 71° |
| 2026-05-05 09:41 | 40.35681 | 27.74776 | 29934 ft | 481 kts | 71° |
| 2026-05-05 09:41 | 40.36633 | 27.78920 | 29516 ft | 482 kts | 71° |
| 2026-05-05 09:41 | 40.37601 | 27.83132 | 28987 ft | 483 kts | 71° |
| 2026-05-05 09:41 | 40.38575 | 27.87349 | 28443 ft | 484 kts | 71° |
| 2026-05-05 09:42 | 40.39548 | 27.91576 | 27900 ft | 485 kts | 70° |
| 2026-05-05 09:42 | 40.40523 | 27.95816 | 27365 ft | 486 kts | 70° |
| 2026-05-05 09:42 | 40.41499 | 28.00064 | 26858 ft | 487 kts | 70° |
| 2026-05-05 09:42 | 40.42471 | 28.04319 | 26516 ft | 488 kts | 70° |
| 2026-05-05 09:43 | 40.43442 | 28.08591 | 26265 ft | 489 kts | 70° |
| 2026-05-05 09:43 | 40.44398 | 28.12811 | 26018 ft | 490 kts | 70° |
| 2026-05-05 09:43 | 40.45371 | 28.17091 | 25782 ft | 490 kts | 70° |
| 2026-05-05 09:43 | 40.46344 | 28.21378 | 25537 ft | 490 kts | 70° |
| 2026-05-05 09:44 | 40.47318 | 28.25669 | 25293 ft | 490 kts | 70° |
| 2026-05-05 09:44 | 40.48293 | 28.29961 | 25063 ft | 491 kts | 70° |
| 2026-05-05 09:44 | 40.49266 | 28.34261 | 24813 ft | 491 kts | 70° |
| 2026-05-05 09:44 | 40.50235 | 28.38564 | 24573 ft | 492 kts | 70° |
| 2026-05-05 09:45 | 40.51200 | 28.42873 | 24340 ft | 492 kts | 70° |
| 2026-05-05 09:45 | 40.52164 | 28.47184 | 24106 ft | 491 kts | 70° |
| 2026-05-05 09:45 | 40.53110 | 28.51435 | 23864 ft | 476 kts | 70° |
| 2026-05-05 09:45 | 40.54016 | 28.55537 | 23632 ft | 460 kts | 71° |
| 2026-05-05 09:46 | 40.54897 | 28.59516 | 23358 ft | 446 kts | 70° |
| 2026-05-05 09:46 | 40.55742 | 28.63320 | 23090 ft | 433 kts | 70° |
| 2026-05-05 09:46 | 40.56576 | 28.67062 | 22823 ft | 421 kts | 70° |
| 2026-05-05 09:46 | 40.57389 | 28.70715 | 22555 ft | 411 kts | 70° |
| 2026-05-05 09:47 | 40.58185 | 28.74287 | 22291 ft | 403 kts | 70° |
| 2026-05-05 09:47 | 40.58961 | 28.77783 | 22026 ft | 394 kts | 70° |
| 2026-05-05 09:47 | 40.59717 | 28.81206 | 21763 ft | 385 kts | 70° |
| 2026-05-05 09:47 | 40.60455 | 28.84554 | 21501 ft | 376 kts | 70° |
| 2026-05-05 09:48 | 40.61174 | 28.87821 | 21244 ft | 368 kts | 70° |
| 2026-05-05 09:48 | 40.61868 | 28.90975 | 20989 ft | 360 kts | 70° |
| 2026-05-05 09:48 | 40.62555 | 28.94100 | 20747 ft | 352 kts | 70° |
| 2026-05-05 09:48 | 40.63225 | 28.97166 | 20506 ft | 346 kts | 71° |
| 2026-05-05 09:49 | 40.63886 | 29.00196 | 20249 ft | 343 kts | 71° |
| 2026-05-05 09:49 | 40.64541 | 29.03197 | 19996 ft | 340 kts | 71° |
| 2026-05-05 09:49 | 40.65191 | 29.06175 | 19973 ft | 336 kts | 71° |
| 2026-05-05 09:49 | 40.65842 | 29.09148 | 19994 ft | 339 kts | 71° |
| 2026-05-05 09:50 | 40.66491 | 29.12129 | 19998 ft | 339 kts | 71° |
| 2026-05-05 09:50 | 40.67140 | 29.15115 | 20007 ft | 339 kts | 71° |
| 2026-05-05 09:50 | 40.67778 | 29.18065 | 20009 ft | 339 kts | 71° |
| 2026-05-05 09:50 | 40.68368 | 29.21077 | 20008 ft | 341 kts | 76° |
| 2026-05-05 09:51 | 40.68670 | 29.24189 | 19816 ft | 342 kts | 82° |
| 2026-05-05 09:51 | 40.68889 | 29.27295 | 19584 ft | 339 kts | 82° |
| 2026-05-05 09:51 | 40.69108 | 29.30370 | 19332 ft | 336 kts | 82° |
| 2026-05-05 09:51 | 40.69326 | 29.33425 | 19103 ft | 334 kts | 82° |
| 2026-05-05 09:52 | 40.69541 | 29.36458 | 18866 ft | 332 kts | 82° |
| 2026-05-05 09:52 | 40.69752 | 29.39472 | 18635 ft | 329 kts | 82° |
| 2026-05-05 09:52 | 40.69960 | 29.42467 | 18401 ft | 327 kts | 82° |
| 2026-05-05 09:52 | 40.70163 | 29.45444 | 18136 ft | 325 kts | 82° |
| 2026-05-05 09:53 | 40.70362 | 29.48363 | 17871 ft | 324 kts | 82° |
| 2026-05-05 09:53 | 40.70565 | 29.51308 | 17652 ft | 322 kts | 82° |
| 2026-05-05 09:53 | 40.70769 | 29.54251 | 17398 ft | 321 kts | 82° |
| 2026-05-05 09:53 | 40.70972 | 29.57179 | 17076 ft | 320 kts | 82° |
| 2026-05-05 09:54 | 40.71170 | 29.60088 | 16763 ft | 318 kts | 82° |
| 2026-05-05 09:54 | 40.71366 | 29.62987 | 16452 ft | 317 kts | 82° |
| 2026-05-05 09:54 | 40.71563 | 29.65873 | 16139 ft | 315 kts | 82° |
| 2026-05-05 09:54 | 40.71755 | 29.68709 | 15835 ft | 314 kts | 82° |
| 2026-05-05 09:55 | 40.71949 | 29.71570 | 15525 ft | 313 kts | 82° |
| 2026-05-05 09:55 | 40.72142 | 29.74418 | 15219 ft | 311 kts | 82° |
| 2026-05-05 09:55 | 40.72334 | 29.77253 | 14911 ft | 310 kts | 82° |
| 2026-05-05 09:55 | 40.72524 | 29.80073 | 14569 ft | 308 kts | 82° |
| 2026-05-05 09:56 | 40.72712 | 29.82884 | 14239 ft | 307 kts | 82° |
| 2026-05-05 09:56 | 40.72899 | 29.85674 | 13897 ft | 305 kts | 83° |
| 2026-05-05 09:56 | 40.73080 | 29.88455 | 13532 ft | 303 kts | 83° |
| 2026-05-05 09:56 | 40.73256 | 29.91212 | 13196 ft | 301 kts | 83° |
| 2026-05-05 09:57 | 40.73432 | 29.93961 | 12868 ft | 300 kts | 83° |
| 2026-05-05 09:57 | 40.73606 | 29.96658 | 12544 ft | 299 kts | 82° |
| 2026-05-05 09:57 | 40.73943 | 29.99336 | 12219 ft | 295 kts | 71° |
| 2026-05-05 09:57 | 40.74749 | 30.01796 | 11893 ft | 291 kts | 57° |
| 2026-05-05 09:58 | 40.75927 | 30.03945 | 11568 ft | 288 kts | 50° |
| 2026-05-05 09:58 | 40.77154 | 30.06026 | 11261 ft | 287 kts | 50° |
| 2026-05-05 09:58 | 40.78375 | 30.08107 | 10941 ft | 287 kts | 50° |
| 2026-05-05 09:58 | 40.79590 | 30.10193 | 10620 ft | 287 kts | 50° |
| 2026-05-05 09:59 | 40.80802 | 30.12276 | 10317 ft | 285 kts | 50° |
| 2026-05-05 09:59 | 40.81988 | 30.14315 | 10166 ft | 275 kts | 50° |
| 2026-05-05 09:59 | 40.83200 | 30.16188 | 10057 ft | 262 kts | 39° |
| 2026-05-05 09:59 | 40.84673 | 30.17441 | 10000 ft | 254 kts | 21° |
| 2026-05-05 10:00 | 40.86380 | 30.18036 | 10004 ft | 255 kts | 5° |
| 2026-05-05 10:00 | 40.88154 | 30.18202 | 10008 ft | 256 kts | 4° |
| 2026-05-05 10:00 | 40.89954 | 30.18300 | 10010 ft | 268 kts | 354° |
| 2026-05-05 10:00 | 40.91741 | 30.17538 | 9843 ft | 272 kts | 328° |
| 2026-05-05 10:01 | 40.93032 | 30.15789 | 9688 ft | 264 kts | 302° |
| 2026-05-05 10:01 | 40.93864 | 30.13652 | 9425 ft | 261 kts | 297° |
| 2026-05-05 10:01 | 40.94616 | 30.11501 | 9103 ft | 255 kts | 296° |
| 2026-05-05 10:01 | 40.95347 | 30.09379 | 8837 ft | 253 kts | 296° |
| 2026-05-05 10:02 | 40.96063 | 30.07298 | 8580 ft | 251 kts | 296° |
| 2026-05-05 10:02 | 40.96785 | 30.05203 | 8322 ft | 250 kts | 296° |
| 2026-05-05 10:02 | 40.97508 | 30.03113 | 8065 ft | 249 kts | 296° |
| 2026-05-05 10:02 | 40.98226 | 30.01038 | 7816 ft | 248 kts | 296° |
| 2026-05-05 10:03 | 40.98950 | 29.98966 | 7562 ft | 248 kts | 296° |
| 2026-05-05 10:03 | 40.99429 | 29.97600 | 7398 ft | 246 kts | 296° |
| 2026-05-05 10:03 | 41.00381 | 29.94854 | 7063 ft | 245 kts | 296° |
| 2026-05-05 10:03 | 41.00800 | 29.93465 | 6888 ft | 246 kts | 286° |
| 2026-05-05 10:04 | 41.00939 | 29.91222 | 6643 ft | 243 kts | 271° |
| 2026-05-05 10:04 | 41.00897 | 29.88314 | 6308 ft | 236 kts | 272° |
| 2026-05-05 10:04 | 41.00858 | 29.86136 | 6050 ft | 236 kts | 272° |
| 2026-05-05 10:04 | 41.00817 | 29.83974 | 5792 ft | 234 kts | 271° |
| 2026-05-05 10:05 | 41.00789 | 29.82522 | 5615 ft | 234 kts | 271° |
| 2026-05-05 10:05 | 41.00748 | 29.80393 | 5369 ft | 234 kts | 272° |
| 2026-05-05 10:05 | 41.00708 | 29.78240 | 5118 ft | 232 kts | 272° |
| 2026-05-05 10:05 | 41.00667 | 29.76111 | 4862 ft | 230 kts | 272° |
| 2026-05-05 10:06 | 41.00628 | 29.73995 | 4596 ft | 230 kts | 271° |
| 2026-05-05 10:06 | 41.00590 | 29.71877 | 4343 ft | 229 kts | 272° |
| 2026-05-05 10:06 | 41.00538 | 29.69173 | 4164 ft | 214 kts | 272° |
| 2026-05-05 10:06 | 41.00499 | 29.67268 | 4061 ft | 203 kts | 271° |
| 2026-05-05 10:07 | 41.00476 | 29.66008 | 3980 ft | 202 kts | 272° |
| 2026-05-05 10:07 | 41.00443 | 29.64185 | 3848 ft | 200 kts | 272° |
| 2026-05-05 10:07 | 41.00411 | 29.62349 | 3717 ft | 199 kts | 272° |
| 2026-05-05 10:07 | 41.00373 | 29.60517 | 3611 ft | 199 kts | 269° |
| 2026-05-05 10:08 | 41.00008 | 29.58743 | 3514 ft | 202 kts | 250° |
| 2026-05-05 10:08 | 40.99224 | 29.56502 | 3510 ft | 203 kts | 248° |
| 2026-05-05 10:08 | 40.98809 | 29.55365 | 3512 ft | 203 kts | 247° |
| 2026-05-05 10:08 | 40.98201 | 29.53702 | 3502 ft | 195 kts | 248° |
| 2026-05-05 10:09 | 40.97614 | 29.52094 | 3504 ft | 193 kts | 247° |
| 2026-05-05 10:09 | 40.97039 | 29.50519 | 3508 ft | 193 kts | 248° |
| 2026-05-05 10:09 | 40.96457 | 29.48928 | 3440 ft | 192 kts | 247° |
| 2026-05-05 10:09 | 40.95878 | 29.47344 | 3191 ft | 190 kts | 247° |
| 2026-05-05 10:10 | 40.95304 | 29.45776 | 2898 ft | 189 kts | 247° |
| 2026-05-05 10:10 | 40.94733 | 29.44216 | 2609 ft | 186 kts | 247° |
| 2026-05-05 10:10 | 40.94199 | 29.42761 | 2355 ft | 165 kts | 247° |
| 2026-05-05 10:10 | 40.93722 | 29.41461 | 2082 ft | 151 kts | 248° |
| 2026-05-05 10:11 | 40.93276 | 29.40243 | 1843 ft | 143 kts | 247° |
| 2026-05-05 10:11 | 40.92846 | 29.39071 | 1608 ft | 141 kts | 247° |
| 2026-05-05 10:11 | 40.92426 | 29.37925 | 1391 ft | 140 kts | 247° |
| 2026-05-05 10:11 | 40.92003 | 29.36770 | 1167 ft | 140 kts | 246° |
| 2026-05-05 10:12 | 40.91581 | 29.35621 | 951 ft | 138 kts | 245° |
| 2026-05-05 10:12 | 40.91163 | 29.34485 | 770 ft | 137 kts | 245° |
| 2026-05-05 10:12 | 40.90744 | 29.33361 | 586 ft | 135 kts | 245° |
| 2026-05-05 10:12 | 40.90341 | 29.32248 | 348 ft | 134 kts | 243° |
| 2026-05-05 10:13 | 40.89987 | 29.31299 | 311 ft | 82 kts | 244° |
| 2026-05-05 10:13 | 40.89842 | 29.30883 | 312 ft | 35 kts | 250° |
| 2026-05-05 10:13 | 40.89815 | 29.30629 | 311 ft | 21 kts | 272° |
| 2026-05-05 10:13 | 40.89821 | 29.30512 | 311 ft | 2 kts | 274° |
| 2026-05-05 10:14 | 40.89822 | 29.30498 | 310 ft | 4 kts | 276° |
| 2026-05-05 10:14 | 40.89852 | 29.30440 | 310 ft | 10 kts | 350° |
| 2026-05-05 10:14 | 40.89905 | 29.30499 | 311 ft | 11 kts | 67° |
| 2026-05-05 10:14 | 40.89942 | 29.30599 | 311 ft | 13 kts | 62° |
| 2026-05-05 10:15 | 40.89987 | 29.30713 | 311 ft | 15 kts | 62° |
| 2026-05-05 10:15 | 40.90036 | 29.30842 | 311 ft | 15 kts | 64° |
| 2026-05-05 10:15 | 40.90094 | 29.30928 | 311 ft | 13 kts | 12° |
| 2026-05-05 10:15 | 40.90183 | 29.30891 | 311 ft | 14 kts | 335° |
| 2026-05-05 10:16 | 40.90258 | 29.30917 | 311 ft | 13 kts | 59° |
| 2026-05-05 10:16 | 40.90302 | 29.31035 | 311 ft | 15 kts | 64° |
| 2026-05-05 10:16 | 40.90346 | 29.31155 | 311 ft | 13 kts | 64° |
| 2026-05-05 10:16 | 40.90389 | 29.31271 | 311 ft | 13 kts | 64° |
| 2026-05-05 10:17 | 40.90430 | 29.31385 | 311 ft | 11 kts | 64° |
| 2026-05-05 10:17 | 40.90465 | 29.31479 | 309 ft | 12 kts | 64° |
| 2026-05-05 10:17 | 40.90505 | 29.31589 | 311 ft | 14 kts | 64° |
| 2026-05-05 10:17 | 40.90534 | 29.31661 | 311 ft | 3 kts | 46° |
| 2026-05-05 10:18 | 40.90574 | 29.31653 | 310 ft | 9 kts | 336° |
| 2026-05-05 10:18 | 40.90603 | 29.31635 | 311 ft | 2 kts | 335° |
| 2026-05-05 10:18 | 40.90606 | 29.31634 | 311 ft | 0 kts | 335° |